createdAt,value
2022-10-17T00:01:20.020Z,11.65
2022-10-17T00:03:50.390Z,10.43
2022-10-17T00:06:22.921Z,8.52
2022-10-17T00:08:56.072Z,9.07
2022-10-17T00:11:27.912Z,9.23
2022-10-17T00:14:03.464Z,8.30
2022-10-17T00:16:39.687Z,9.10
2022-10-17T00:19:10.936Z,10.32
2022-10-17T00:21:40.120Z,9.20
2022-10-17T00:24:09.226Z,9.70
2022-10-17T00:26:39.887Z,9.73
2022-10-17T00:29:13.029Z,9.85
2022-10-17T00:31:45.511Z,9.88
2022-10-17T00:34:15.990Z,9.38
2022-10-17T00:36:50.177Z,9.25
2022-10-17T00:39:21.452Z,9.63
2022-10-17T00:41:53.235Z,8.85
2022-10-17T00:47:11.029Z,9.13
2022-10-17T00:49:40.400Z,8.77
2022-10-17T00:52:17.312Z,9.00
2022-10-17T00:54:52.733Z,9.50
2022-10-17T00:57:28.503Z,9.68
2022-10-17T01:00:10.687Z,8.95
2022-10-17T01:02:40.564Z,9.15
2022-10-17T01:05:19.293Z,8.63
2022-10-17T01:07:52.459Z,8.25
2022-10-17T01:13:19.833Z,8.50
2022-10-17T01:16:01.484Z,8.15
2022-10-17T01:19:12.230Z,8.73
2022-10-17T01:22:01.345Z,7.87
2022-10-17T01:25:02.945Z,7.50
2022-10-17T01:28:13.051Z,6.60
2022-10-17T01:30:50.641Z,6.65
2022-10-17T01:33:46.356Z,7.28
2022-10-17T01:36:39.269Z,7.10
2022-10-17T01:39:18.167Z,7.65
2022-10-17T01:42:02.081Z,7.22
2022-10-17T01:44:52.896Z,7.53
2022-10-17T01:47:27.351Z,6.70
2022-10-17T01:49:58.644Z,7.20
2022-10-17T01:52:37.527Z,7.40
2022-10-17T01:55:11.963Z,7.03
2022-10-17T01:57:46.292Z,6.87
2022-10-17T02:00:20.659Z,7.07
2022-10-17T02:02:55.035Z,7.12
2022-10-17T02:05:26.910Z,6.47
2022-10-17T02:07:56.656Z,6.93
2022-10-17T02:10:36.156Z,7.00
2022-10-17T02:13:11.302Z,7.40
2022-10-17T02:16:08.242Z,6.45
2022-10-17T02:18:47.595Z,6.20
2022-10-17T02:21:25.647Z,7.12
2022-10-17T02:24:07.429Z,6.57
2022-10-17T02:27:32.901Z,6.65
2022-10-17T02:30:16.007Z,6.87
2022-10-17T02:32:54.807Z,6.53
2022-10-17T02:35:26.314Z,6.30
2022-10-17T02:37:54.237Z,6.45
2022-10-17T02:40:24.792Z,7.03
2022-10-17T02:42:54.720Z,6.07
2022-10-17T02:45:25.976Z,6.43
2022-10-17T02:48:02.961Z,7.22
2022-10-17T02:50:47.252Z,6.10
2022-10-17T02:53:18.871Z,6.35
2022-10-17T02:55:58.297Z,5.97
2022-10-17T02:58:31.461Z,6.37
2022-10-17T03:01:04.591Z,6.82
2022-10-17T03:03:33.147Z,6.40
2022-10-17T03:06:02.830Z,6.68
2022-10-17T03:08:31.063Z,6.55
2022-10-17T03:11:00.758Z,6.20
2022-10-17T03:13:33.888Z,6.18
2022-10-17T03:16:10.059Z,6.12
2022-10-17T03:18:43.484Z,6.43
2022-10-17T03:21:16.998Z,5.70
2022-10-17T03:23:48.081Z,5.90
2022-10-17T03:26:16.535Z,6.53
2022-10-17T03:28:44.422Z,5.93
2022-10-17T03:31:15.730Z,6.70
2022-10-17T03:33:44.882Z,5.85
2022-10-17T03:36:15.931Z,6.20
2022-10-17T03:38:46.399Z,6.20
2022-10-17T03:41:17.307Z,7.07
2022-10-17T03:43:46.244Z,6.53
2022-10-17T03:46:15.657Z,6.40
2022-10-17T03:48:44.856Z,6.93
2022-10-17T03:51:13.428Z,5.93
2022-10-17T03:53:42.628Z,5.62
2022-10-17T03:56:16.180Z,6.05
2022-10-17T03:58:48.194Z,6.55
2022-10-17T04:01:18.004Z,6.40
2022-10-17T04:03:55.020Z,6.28
2022-10-17T04:06:24.070Z,6.18
2022-10-17T04:08:52.693Z,6.28
2022-10-17T04:11:24.808Z,5.22
2022-10-17T04:13:56.370Z,6.15
2022-10-17T04:16:26.678Z,6.12
2022-10-17T04:18:58.738Z,5.70
2022-10-17T04:21:28.417Z,6.50
2022-10-17T04:23:59.154Z,6.18
2022-10-17T04:26:30.927Z,5.95
2022-10-17T04:28:59.933Z,5.80
2022-10-17T04:31:28.744Z,6.15
2022-10-17T04:33:59.607Z,6.68
2022-10-17T04:36:29.430Z,6.70
2022-10-17T04:38:58.510Z,7.60
2022-10-17T04:41:26.717Z,8.02
2022-10-17T04:43:58.899Z,8.27
2022-10-17T04:46:34.034Z,7.37
2022-10-17T04:49:04.111Z,7.15
2022-10-17T04:51:32.479Z,6.53
2022-10-17T04:54:02.795Z,5.97
2022-10-17T04:56:34.445Z,6.10
2022-10-17T04:59:04.775Z,6.68
2022-10-17T05:01:35.082Z,7.32
2022-10-17T05:04:03.349Z,7.10
2022-10-17T05:06:32.982Z,7.60
2022-10-17T05:09:06.534Z,6.55
2022-10-17T05:11:35.739Z,5.87
2022-10-17T05:14:03.687Z,7.40
2022-10-17T05:16:34.157Z,7.70
2022-10-17T05:19:03.458Z,7.50
2022-10-17T05:24:08.599Z,6.22
2022-10-17T05:26:39.571Z,7.25
2022-10-17T05:29:07.967Z,7.10
2022-10-17T05:31:36.639Z,6.55
2022-10-17T05:34:10.335Z,7.30
2022-10-17T05:36:42.413Z,7.35
2022-10-17T05:39:14.871Z,7.15
2022-10-17T05:41:43.208Z,7.45
2022-10-17T05:44:11.448Z,9.10
2022-10-17T05:46:40.077Z,7.22
2022-10-17T05:49:19.567Z,8.00
2022-10-17T05:52:00.415Z,7.47
2022-10-17T05:54:28.759Z,8.45
2022-10-17T05:57:00.419Z,7.85
2022-10-17T05:59:38.429Z,9.35
2022-10-17T06:02:06.819Z,9.30
2022-10-17T06:04:35.715Z,10.07
2022-10-17T06:07:07.401Z,10.10
2022-10-17T06:09:36.124Z,10.02
2022-10-17T06:12:04.424Z,9.55
2022-10-17T06:14:33.286Z,10.18
2022-10-17T06:17:08.400Z,9.52
2022-10-17T06:20:15.913Z,10.25
2022-10-17T06:23:07.180Z,8.98
2022-10-17T06:26:10.630Z,9.57
2022-10-17T06:28:39.440Z,10.35
2022-10-17T06:31:18.257Z,11.50
2022-10-17T06:34:05.086Z,11.00
2022-10-17T06:44:57.308Z,11.60
2022-10-17T06:48:00.530Z,11.70
2022-10-17T06:58:50.502Z,12.13
2022-10-17T07:02:04.015Z,12.07
2022-10-17T07:04:47.123Z,12.27
2022-10-17T07:07:44.167Z,12.40
2022-10-17T07:10:50.652Z,12.50
2022-10-17T07:13:57.827Z,11.65
2022-10-17T07:16:54.857Z,12.68
2022-10-17T07:19:52.840Z,12.37
2022-10-17T07:22:27.141Z,12.63
2022-10-17T07:25:02.383Z,11.70
2022-10-17T07:27:59.979Z,12.20
2022-10-17T07:30:37.169Z,11.93
2022-10-17T07:33:10.002Z,11.63
2022-10-17T07:35:52.817Z,11.65
2022-10-17T07:38:30.292Z,11.98
2022-10-17T07:41:29.535Z,11.57
2022-10-17T07:44:24.362Z,11.60
2022-10-17T07:46:56.230Z,10.75
2022-10-17T07:49:31.341Z,10.60
2022-10-17T07:52:05.300Z,11.40
2022-10-17T07:54:48.975Z,10.57
2022-10-17T07:57:32.395Z,10.55
2022-10-17T08:00:07.975Z,9.48
2022-10-17T08:02:43.114Z,10.73
2022-10-17T08:05:19.518Z,12.88
2022-10-17T08:07:50.271Z,10.80
2022-10-17T08:10:37.025Z,10.00
2022-10-17T08:13:30.404Z,9.68
2022-10-17T08:16:05.715Z,9.93
2022-10-17T08:18:52.574Z,9.25
2022-10-17T08:21:32.436Z,9.85
2022-10-17T08:24:20.377Z,9.40
2022-10-17T08:26:58.558Z,9.55
2022-10-17T08:29:29.684Z,10.63
2022-10-17T08:32:01.394Z,9.25
2022-10-17T08:34:30.644Z,10.32
2022-10-17T08:36:59.075Z,10.35
2022-10-17T08:39:27.214Z,9.73
2022-10-17T08:42:16.483Z,11.15
2022-10-17T08:45:17.436Z,10.40
2022-10-17T08:47:48.097Z,9.90
2022-10-17T08:50:44.830Z,10.68
2022-10-17T08:54:00.727Z,10.68
2022-10-17T08:57:28.837Z,10.40
2022-10-17T09:00:24.696Z,9.68
2022-10-17T09:03:22.817Z,9.75
2022-10-17T09:06:16.770Z,9.88
2022-10-17T09:08:57.261Z,9.57
2022-10-17T09:11:40.024Z,9.15
2022-10-17T09:14:46.206Z,8.85
2022-10-17T09:17:35.770Z,9.10
2022-10-17T09:20:12.098Z,9.02
2022-10-17T09:22:48.510Z,9.48
2022-10-17T09:25:18.208Z,8.68
2022-10-17T09:27:59.844Z,8.23
2022-10-17T09:30:48.534Z,7.78
2022-10-17T09:33:42.318Z,7.53
2022-10-17T09:36:31.718Z,8.25
2022-10-17T09:39:02.498Z,7.72
2022-10-17T09:41:46.101Z,7.57
2022-10-17T09:48:43.016Z,6.75
2022-10-17T09:55:01.181Z,5.45
2022-10-17T09:58:08.277Z,5.78
2022-10-17T10:00:48.565Z,6.15
2022-10-17T10:03:24.886Z,6.10
2022-10-17T10:06:07.533Z,5.87
2022-10-17T10:08:39.527Z,4.78
2022-10-17T10:11:59.280Z,5.35
2022-10-17T10:14:47.286Z,5.65
2022-10-17T10:17:52.412Z,5.72
2022-10-17T10:24:09.983Z,6.95
2022-10-17T10:27:19.503Z,4.90
2022-10-17T10:33:42.111Z,5.12
2022-10-17T10:36:27.663Z,5.65
2022-10-17T10:39:08.352Z,5.25
2022-10-17T10:41:48.763Z,4.68
2022-10-17T10:44:36.799Z,4.53
2022-10-17T10:47:29.033Z,5.43
2022-10-17T11:01:36.819Z,6.47
2022-10-17T11:04:39.863Z,5.30
2022-10-17T11:07:47.873Z,4.95
2022-10-17T11:10:44.756Z,11.38
2022-10-17T11:13:22.666Z,5.07
2022-10-17T11:16:32.072Z,4.75
2022-10-17T11:30:24.450Z,3.95
2022-10-17T11:36:31.932Z,4.87
2022-10-17T11:39:08.720Z,5.07
2022-10-17T11:41:49.091Z,4.80
2022-10-17T11:44:27.740Z,5.35
2022-10-17T11:53:32.083Z,4.50
2022-10-17T11:56:43.002Z,4.20
2022-10-17T12:03:33.832Z,4.57
2022-10-17T12:10:14.400Z,3.90
2022-10-17T12:12:52.045Z,4.20
2022-10-17T12:15:24.830Z,3.80
2022-10-17T12:18:02.661Z,5.18
2022-10-17T12:20:39.493Z,3.97
2022-10-17T12:23:10.636Z,4.37
2022-10-17T12:26:03.366Z,3.75
2022-10-17T12:28:41.032Z,3.80
2022-10-17T12:31:28.521Z,4.32
2022-10-17T12:34:05.094Z,4.07
2022-10-17T12:36:33.842Z,4.75
2022-10-17T12:39:02.368Z,3.67
2022-10-17T12:41:39.527Z,4.97
2022-10-17T12:44:14.976Z,3.95
2022-10-17T12:47:02.059Z,4.00
2022-10-17T12:49:45.597Z,4.07
2022-10-17T12:52:31.994Z,4.03
2022-10-17T12:55:21.447Z,3.50
2022-10-17T12:58:07.205Z,3.50
2022-10-17T13:01:19.009Z,4.43
2022-10-17T13:03:48.169Z,3.95
2022-10-17T13:06:22.502Z,3.83
2022-10-17T13:09:04.157Z,3.67
2022-10-17T13:11:35.520Z,3.70
2022-10-17T13:14:09.767Z,3.78
2022-10-17T13:16:51.422Z,3.90
2022-10-17T13:19:23.641Z,3.83
2022-10-17T13:21:56.304Z,3.60
2022-10-17T13:24:29.397Z,3.65
2022-10-17T13:30:44.158Z,4.30
2022-10-17T13:33:33.117Z,4.78
2022-10-17T13:36:14.371Z,3.97
2022-10-17T13:38:52.256Z,3.70
2022-10-17T13:41:41.526Z,3.47
2022-10-17T13:44:21.792Z,3.55
2022-10-17T13:46:50.695Z,3.00
2022-10-17T13:49:25.846Z,3.87
2022-10-17T13:51:54.847Z,3.50
2022-10-17T13:54:36.832Z,4.10
2022-10-17T13:57:05.819Z,4.12
2022-10-17T13:59:40.453Z,3.30
2022-10-17T14:02:20.894Z,3.62
2022-10-17T14:05:32.000Z,3.50
2022-10-17T14:08:38.680Z,3.58
2022-10-17T14:15:11.806Z,3.58
2022-10-17T14:17:44.074Z,3.50
2022-10-17T14:20:57.530Z,3.80
2022-10-17T14:23:42.194Z,3.45
2022-10-17T14:26:22.953Z,3.90
2022-10-17T14:29:07.054Z,3.75
2022-10-17T14:31:36.153Z,3.45
2022-10-17T14:34:05.193Z,3.50
2022-10-17T14:36:41.972Z,4.47
2022-10-17T14:39:23.408Z,3.35
2022-10-17T14:41:52.073Z,3.45
2022-10-17T14:44:23.655Z,3.85
2022-10-17T14:46:55.042Z,3.40
2022-10-17T14:49:28.977Z,3.78
2022-10-17T14:52:18.262Z,3.70
2022-10-17T14:54:57.167Z,3.60
2022-10-17T14:57:47.902Z,4.22
2022-10-17T15:00:18.086Z,4.40
2022-10-17T15:02:46.926Z,3.92
2022-10-17T15:05:15.525Z,3.87
2022-10-17T15:07:44.797Z,3.70
2022-10-17T15:10:33.089Z,4.15
2022-10-17T15:15:52.260Z,4.28
2022-10-17T15:18:20.932Z,3.47
2022-10-17T15:20:55.260Z,3.87
2022-10-17T15:23:33.094Z,4.40
2022-10-17T15:26:01.313Z,4.25
2022-10-17T15:28:29.765Z,3.95
2022-10-17T15:30:58.315Z,4.47
2022-10-17T15:33:26.835Z,4.18
2022-10-17T15:35:55.058Z,3.90
2022-10-17T15:38:23.964Z,4.78
2022-10-17T15:40:52.183Z,3.50
2022-10-17T15:43:20.269Z,4.57
2022-10-17T15:45:49.070Z,4.40
2022-10-17T15:48:30.310Z,3.97
2022-10-17T15:50:58.506Z,4.40
2022-10-17T15:53:26.646Z,4.18
2022-10-17T15:55:54.593Z,4.10
2022-10-17T15:58:22.632Z,5.10
2022-10-17T16:00:50.272Z,4.07
2022-10-17T16:03:18.989Z,4.70
2022-10-17T16:05:47.381Z,6.53
2022-10-17T16:08:15.552Z,4.97
2022-10-17T16:10:44.217Z,5.60
2022-10-17T16:13:22.235Z,5.68
2022-10-17T16:15:53.889Z,5.75
2022-10-17T16:18:22.743Z,5.70
2022-10-17T16:20:50.314Z,5.32
2022-10-17T16:23:20.694Z,5.60
2022-10-17T16:25:48.701Z,5.35
2022-10-17T16:28:17.570Z,6.07
2022-10-17T16:30:46.399Z,5.70
2022-10-17T16:33:16.839Z,5.43
2022-10-17T16:35:46.779Z,6.40
2022-10-17T16:38:14.606Z,6.03
2022-10-17T16:40:43.508Z,6.50
2022-10-17T16:43:13.034Z,6.57
2022-10-17T16:45:41.944Z,6.78
2022-10-17T16:48:12.365Z,5.95
2022-10-17T16:50:40.815Z,6.03
2022-10-17T16:53:08.305Z,5.75
2022-10-17T16:55:38.634Z,5.35
2022-10-17T16:58:06.887Z,5.72
2022-10-17T17:00:35.713Z,5.00
2022-10-17T17:03:07.378Z,5.65
2022-10-17T17:05:35.673Z,5.85
2022-10-17T17:08:04.910Z,5.18
2022-10-17T17:10:36.033Z,6.03
2022-10-17T17:13:04.643Z,5.20
2022-10-17T17:15:32.592Z,5.80
2022-10-17T17:18:05.095Z,5.32
2022-10-17T17:20:34.079Z,5.50
2022-10-17T17:23:06.938Z,5.45
2022-10-17T17:25:34.901Z,5.90
2022-10-17T17:28:03.990Z,5.45
2022-10-17T17:30:36.023Z,5.70
2022-10-17T17:33:08.147Z,5.25
2022-10-17T17:35:39.591Z,4.72
2022-10-17T17:38:08.437Z,5.50
2022-10-17T17:40:38.172Z,5.72
2022-10-17T17:43:06.903Z,5.72
2022-10-17T17:45:38.773Z,6.37
2022-10-17T17:48:08.390Z,6.72
2022-10-17T17:50:37.996Z,7.35
2022-10-17T17:53:07.892Z,7.47
2022-10-17T17:55:35.867Z,8.98
2022-10-17T17:58:05.327Z,8.40
2022-10-17T18:03:07.236Z,9.15
2022-10-17T18:05:35.216Z,8.50
2022-10-17T18:08:05.026Z,9.88
2022-10-17T18:10:34.005Z,9.70
2022-10-17T18:13:02.750Z,11.35
2022-10-17T18:15:35.748Z,11.77
2022-10-17T18:18:12.148Z,13.95
2022-10-17T18:20:43.680Z,16.40
2022-10-17T18:23:14.241Z,18.52
2022-10-17T18:25:59.668Z,21.08
2022-10-17T18:28:31.144Z,20.17
2022-10-17T18:31:09.492Z,19.67
2022-10-17T18:33:38.065Z,20.33
2022-10-17T18:36:11.378Z,19.27
2022-10-17T18:38:43.227Z,18.42
2022-10-17T18:41:13.491Z,18.60
2022-10-17T18:43:44.046Z,17.35
2022-10-17T18:46:16.319Z,16.77
2022-10-17T18:48:48.028Z,15.98
2022-10-17T18:51:18.304Z,17.48
2022-10-17T18:53:50.614Z,16.70
2022-10-17T18:56:21.530Z,13.60
2022-10-17T18:58:50.010Z,14.85
2022-10-17T19:01:23.333Z,13.82
2022-10-17T19:03:53.982Z,15.25
2022-10-17T19:06:24.330Z,16.12
2022-10-17T19:08:54.629Z,16.08
2022-10-17T19:11:25.153Z,15.38
2022-10-17T19:13:54.121Z,16.58
2022-10-17T19:16:30.418Z,15.27
2022-10-17T19:19:13.019Z,14.65
2022-10-17T19:21:43.191Z,14.65
2022-10-17T19:24:21.682Z,17.12
2022-10-17T19:26:55.475Z,17.12
2022-10-17T19:29:31.195Z,16.02
2022-10-17T19:32:01.305Z,15.30
2022-10-17T19:34:29.341Z,15.13
2022-10-17T19:36:57.523Z,15.25
2022-10-17T19:39:28.311Z,14.55
2022-10-17T19:41:56.594Z,14.63
2022-10-17T19:44:24.611Z,14.87
2022-10-17T19:46:58.119Z,16.30
2022-10-17T19:49:26.474Z,16.20
2022-10-17T19:51:55.150Z,16.73
2022-10-17T19:54:23.603Z,17.48
2022-10-17T19:56:56.322Z,16.77
2022-10-17T19:59:26.795Z,16.27
2022-10-17T20:01:55.888Z,16.08
2022-10-17T20:04:49.628Z,16.77
2022-10-17T20:07:27.893Z,16.08
2022-10-17T20:09:58.669Z,15.55
2022-10-17T20:12:26.531Z,15.73
2022-10-17T20:14:55.314Z,14.82
2022-10-17T20:17:27.952Z,15.35
2022-10-17T20:19:58.307Z,14.98
2022-10-17T20:22:32.464Z,13.85
2022-10-17T20:25:02.234Z,14.30
2022-10-17T20:27:35.727Z,14.52
2022-10-17T20:30:07.301Z,15.17
2022-10-17T20:32:40.054Z,13.55
2022-10-17T20:35:08.863Z,14.20
2022-10-17T20:37:41.568Z,14.45
2022-10-17T20:43:00.601Z,13.57
2022-10-17T20:45:44.243Z,14.55
2022-10-17T20:48:20.192Z,14.30
2022-10-17T20:50:51.489Z,12.98
2022-10-17T20:53:37.700Z,12.35
2022-10-17T20:56:12.456Z,13.57
2022-10-17T20:58:41.180Z,13.62
2022-10-17T21:01:13.234Z,11.75
2022-10-17T21:03:45.467Z,13.13
2022-10-17T21:06:16.580Z,13.68
2022-10-17T21:08:47.288Z,13.43
2022-10-17T21:11:23.891Z,14.50
2022-10-17T21:13:58.423Z,14.57
2022-10-17T21:16:28.501Z,15.07
2022-10-17T21:18:57.024Z,15.15
2022-10-17T21:21:27.425Z,14.48
2022-10-17T21:24:00.486Z,13.48
2022-10-17T21:26:32.817Z,13.85
2022-10-17T21:29:05.663Z,13.30
2022-10-17T21:31:35.670Z,14.00
2022-10-17T21:34:10.559Z,13.82
2022-10-17T21:36:38.922Z,13.00
2022-10-17T21:41:35.791Z,12.40
2022-10-17T21:44:12.709Z,14.23
2022-10-17T21:46:41.922Z,13.77
2022-10-17T21:49:15.365Z,13.88
2022-10-17T21:51:45.330Z,13.35
2022-10-17T21:54:15.774Z,12.43
2022-10-17T21:56:45.489Z,12.93
2022-10-17T21:59:14.274Z,12.37
2022-10-17T22:01:46.424Z,11.43
2022-10-17T22:04:19.336Z,11.88
2022-10-17T22:06:48.454Z,12.98
2022-10-17T22:09:22.923Z,11.85
2022-10-17T22:11:57.411Z,11.18
2022-10-17T22:14:31.360Z,10.90
2022-10-17T22:17:04.139Z,11.40
2022-10-17T22:19:34.690Z,10.50
2022-10-17T22:22:05.648Z,10.45
2022-10-17T22:24:37.925Z,11.63
2022-10-17T22:27:13.632Z,11.12
2022-10-17T22:29:43.256Z,11.12
2022-10-17T22:32:16.334Z,10.50
2022-10-17T22:34:49.452Z,10.45
2022-10-17T22:37:20.443Z,11.12
2022-10-17T22:39:52.022Z,11.50
2022-10-17T22:44:59.080Z,10.98
2022-10-17T22:47:32.723Z,11.00
2022-10-17T22:50:10.332Z,10.20
2022-10-17T22:52:41.354Z,10.10
2022-10-17T22:55:13.289Z,11.12
2022-10-17T22:57:44.565Z,10.25
2022-10-17T23:00:18.683Z,10.48
2022-10-17T23:02:55.622Z,10.95
2022-10-17T23:05:32.768Z,11.50
2022-10-17T23:08:02.808Z,11.43
2022-10-17T23:10:32.368Z,10.63
2022-10-17T23:13:05.456Z,10.77
2022-10-17T23:15:38.902Z,9.73
2022-10-17T23:18:10.442Z,10.20
2022-10-17T23:20:40.584Z,9.77
2022-10-17T23:23:10.364Z,9.48
2022-10-17T23:25:41.941Z,9.75
2022-10-17T23:28:12.792Z,9.45
2022-10-17T23:30:44.859Z,9.20
2022-10-17T23:33:18.652Z,9.88
2022-10-17T23:35:50.945Z,10.70
2022-10-17T23:38:20.897Z,10.25
2022-10-17T23:40:52.825Z,10.73
2022-10-17T23:43:22.653Z,10.82
2022-10-17T23:45:54.790Z,10.48
2022-10-17T23:48:24.875Z,10.90
2022-10-17T23:50:58.838Z,10.05
2022-10-17T23:53:28.681Z,10.10
2022-10-17T23:55:59.382Z,10.10
2022-10-17T23:58:30.095Z,9.90
